Terminal Aerodrome Forecast
Issued by NWS Pittsburgh, PA

Current Version | Previous Version | Graphics & Text | Print | Product List | Glossary On
Versions: 1 2 3 4 5 6 7 8 9 10 11 12 13 14 15 16 17 18 19 20 21 22 23 24 25 26 27 28 29 30 31 32
311
FTUS41 KPBZ 301831 AAA
TAFPIT
TAF AMD
KPIT 301831Z 3019/0124 08009KT P6SM BKN025
     FM302100 09011KT P6SM BKN035
     FM010200 09010KT P6SM VCSH BKN025
     FM010900 10005KT P6SM BKN008
     FM011500 14005KT P6SM BKN015
     FM011700 16005KT P6SM SCT035
     FM011900 16005KT P6SM BKN035=

USA.gov is the U.S. government's official web portal to all federal, state and local government web resources and services.